createdAt,value
2022-08-11T00:01:14.394Z,29.92
2022-08-11T00:03:55.030Z,30.29
2022-08-11T00:06:27.644Z,30.04
2022-08-11T00:08:56.346Z,30.10
2022-08-11T00:11:33.722Z,29.62
2022-08-11T00:14:02.702Z,29.97
2022-08-11T00:16:31.456Z,30.06
2022-08-11T00:19:01.980Z,30.25
2022-08-11T00:21:59.733Z,30.92
2022-08-11T00:24:19.467Z,31.39
2022-08-11T00:26:49.774Z,31.40
2022-08-11T00:29:18.954Z,29.42
2022-08-11T00:31:51.068Z,29.69
2022-08-11T00:34:24.392Z,29.19
2022-08-11T00:36:55.548Z,29.80
2022-08-11T00:39:28.656Z,31.37
2022-08-11T00:42:08.354Z,29.85
2022-08-11T00:44:46.320Z,31.34
2022-08-11T00:47:22.507Z,31.33
2022-08-11T00:50:03.609Z,30.19
2022-08-11T00:52:46.140Z,29.18
2022-08-11T00:55:57.450Z,28.94
2022-08-11T00:59:02.426Z,28.91
2022-08-11T01:01:49.464Z,31.19
2022-08-11T01:05:04.426Z,31.91
2022-08-11T01:08:22.656Z,34.25
2022-08-11T01:11:10.989Z,34.86
2022-08-11T01:14:14.505Z,34.12
2022-08-11T01:17:11.408Z,34.88
2022-08-11T01:20:45.278Z,34.83
2022-08-11T01:23:20.287Z,35.34
2022-08-11T01:26:34.193Z,34.59
2022-08-11T01:29:35.465Z,33.24
2022-08-11T01:32:45.198Z,35.72
2022-08-11T01:35:49.884Z,33.69
2022-08-11T01:39:09.031Z,33.96
2022-08-11T01:42:34.365Z,32.77
2022-08-11T01:45:17.727Z,31.68
2022-08-11T01:47:54.503Z,32.28
2022-08-11T01:50:36.710Z,32.78
2022-08-11T01:53:19.060Z,32.32
2022-08-11T01:55:57.373Z,32.08
2022-08-11T01:58:43.253Z,31.57
2022-08-11T02:01:35.536Z,32.18
2022-08-11T02:04:26.272Z,32.45
2022-08-11T02:06:59.357Z,33.08
2022-08-11T02:09:49.744Z,33.55
2022-08-11T02:12:47.665Z,32.78
2022-08-11T02:15:28.773Z,31.14
2022-08-11T02:18:06.802Z,30.89
2022-08-11T02:21:00.442Z,31.43
2022-08-11T02:24:05.508Z,31.28
2022-08-11T02:26:41.096Z,31.58
2022-08-11T02:29:17.881Z,32.24
2022-08-11T02:32:28.465Z,32.11
2022-08-11T02:35:10.994Z,32.57
2022-08-11T02:37:47.890Z,33.13
2022-08-11T02:40:25.919Z,33.50
2022-08-11T02:43:06.738Z,34.94
2022-08-11T02:45:46.182Z,34.60
2022-08-11T02:48:47.984Z,35.38
2022-08-11T02:51:25.688Z,32.93
2022-08-11T02:54:02.796Z,33.64
2022-08-11T02:56:44.625Z,33.80
2022-08-11T02:59:44.036Z,33.69
2022-08-11T03:02:17.536Z,35.12
2022-08-11T03:04:59.919Z,36.29
2022-08-11T03:07:34.900Z,35.58
2022-08-11T03:10:09.883Z,35.73
2022-08-11T03:13:04.526Z,34.54
2022-08-11T03:16:02.128Z,34.04
2022-08-11T03:18:38.371Z,33.94
2022-08-11T03:21:11.326Z,32.92
2022-08-11T03:23:48.920Z,32.82
2022-08-11T03:26:28.045Z,33.85
2022-08-11T03:29:06.279Z,34.44
2022-08-11T03:31:40.178Z,34.17
2022-08-11T03:34:13.732Z,33.71
2022-08-11T03:37:37.204Z,32.87
2022-08-11T03:40:17.124Z,34.03
2022-08-11T03:42:52.949Z,33.49
2022-08-11T03:45:37.414Z,33.78
2022-08-11T03:48:20.924Z,33.72
2022-08-11T03:51:06.564Z,34.44
2022-08-11T03:53:50.416Z,35.19
2022-08-11T03:56:49.304Z,35.18
2022-08-11T04:00:05.884Z,37.19
2022-08-11T04:03:10.662Z,35.70
2022-08-11T04:06:11.740Z,37.26
2022-08-11T04:09:16.673Z,36.86
2022-08-11T04:12:35.498Z,36.76
2022-08-11T04:15:42.329Z,39.85
2022-08-11T04:18:40.909Z,38.68
2022-08-11T04:21:27.676Z,37.17
2022-08-11T04:24:33.218Z,35.77
2022-08-11T04:27:36.896Z,35.94
2022-08-11T04:30:13.144Z,37.43
2022-08-11T04:33:04.890Z,39.55
2022-08-11T04:35:48.821Z,38.04
2022-08-11T04:38:51.965Z,40.75
2022-08-11T04:42:01.537Z,39.07
2022-08-11T04:44:57.414Z,39.84
2022-08-11T04:48:06.697Z,38.47
2022-08-11T04:51:16.886Z,40.88
2022-08-11T04:54:17.115Z,39.67
2022-08-11T04:57:05.386Z,39.36
2022-08-11T05:00:17.351Z,38.70
2022-08-11T05:03:36.448Z,38.12
2022-08-11T05:06:45.910Z,38.73
2022-08-11T05:09:35.879Z,36.61
2022-08-11T05:12:16.590Z,38.41
2022-08-11T05:15:08.220Z,40.11
2022-08-11T05:17:57.512Z,39.22
2022-08-11T05:20:44.270Z,37.69
2022-08-11T05:23:30.881Z,38.92
2022-08-11T05:26:46.486Z,37.88
2022-08-11T05:29:57.607Z,38.21
2022-08-11T05:32:48.897Z,38.88
2022-08-11T05:36:01.403Z,39.20
2022-08-11T05:38:37.315Z,38.09
2022-08-11T05:41:25.894Z,37.33
2022-08-11T05:44:20.682Z,38.90
2022-08-11T05:47:07.998Z,38.38
2022-08-11T05:49:54.264Z,38.32
2022-08-11T05:52:42.158Z,36.82
2022-08-11T05:55:29.400Z,36.62
2022-08-11T05:58:01.512Z,36.73
2022-08-11T06:00:29.511Z,37.01
2022-08-11T06:03:00.881Z,37.86
2022-08-11T06:05:38.501Z,37.66
2022-08-11T06:08:13.354Z,36.95
2022-08-11T06:10:44.129Z,38.24
2022-08-11T06:13:18.532Z,37.65
2022-08-11T06:15:48.168Z,37.44
2022-08-11T06:18:17.133Z,36.71
2022-08-11T06:20:49.737Z,37.61
2022-08-11T06:23:23.559Z,36.76
2022-08-11T06:25:53.289Z,36.12
2022-08-11T06:28:33.700Z,37.98
2022-08-11T06:31:03.548Z,37.46
2022-08-11T06:33:35.134Z,37.70
2022-08-11T06:36:07.783Z,37.11
2022-08-11T06:38:57.712Z,36.56
2022-08-11T06:41:31.770Z,35.88
2022-08-11T06:44:06.715Z,33.84
2022-08-11T06:46:38.760Z,34.82
2022-08-11T06:49:28.108Z,34.16
2022-08-11T06:52:00.594Z,33.28
2022-08-11T06:54:31.948Z,33.36
2022-08-11T06:57:34.205Z,33.37
2022-08-11T07:00:23.553Z,34.28
2022-08-11T07:02:56.313Z,34.11
2022-08-11T07:05:30.034Z,35.51
2022-08-11T07:08:56.678Z,33.92
2022-08-11T07:12:20.210Z,33.19
2022-08-11T07:15:10.067Z,31.56
2022-08-11T07:17:49.807Z,32.82
2022-08-11T07:20:36.763Z,31.01
2022-08-11T07:23:26.165Z,32.54
2022-08-11T07:26:12.779Z,31.93
2022-08-11T07:28:59.598Z,31.02
2022-08-11T07:31:37.211Z,30.45
2022-08-11T07:34:18.108Z,30.68
2022-08-11T07:36:51.788Z,30.85
2022-08-11T07:39:23.098Z,29.88
2022-08-11T07:41:54.356Z,28.91
2022-08-11T07:44:29.387Z,30.36
2022-08-11T07:47:18.580Z,29.78
2022-08-11T07:50:09.085Z,28.39
2022-08-11T07:52:40.505Z,28.54
2022-08-11T07:55:13.065Z,28.21
2022-08-11T07:58:16.035Z,26.96
2022-08-11T08:01:10.124Z,27.29
2022-08-11T08:03:57.620Z,26.96
2022-08-11T08:06:46.005Z,30.06
2022-08-11T08:09:32.349Z,28.60
2022-08-11T08:12:20.684Z,27.38
2022-08-11T08:15:06.321Z,28.07
2022-08-11T08:18:20.852Z,25.15
2022-08-11T08:20:47.682Z,25.15
2022-08-11T08:23:17.988Z,28.54
2022-08-11T08:25:46.851Z,28.79
2022-08-11T08:28:17.541Z,27.85
2022-08-11T08:30:48.177Z,26.63
2022-08-11T08:33:18.689Z,26.85
2022-08-11T08:35:54.285Z,25.38
2022-08-11T08:38:25.393Z,24.75
2022-08-11T08:40:56.501Z,23.78
2022-08-11T08:43:25.559Z,24.52
2022-08-11T08:45:57.246Z,23.75
2022-08-11T08:48:26.953Z,24.43
2022-08-11T08:51:16.078Z,23.88
2022-08-11T08:53:53.500Z,25.04
2022-08-11T08:56:28.988Z,24.38
2022-08-11T08:59:00.508Z,22.44
2022-08-11T09:01:31.570Z,22.90
2022-08-11T09:04:06.661Z,22.25
2022-08-11T09:06:39.829Z,22.49
2022-08-11T09:09:12.145Z,21.50
2022-08-11T09:11:53.357Z,21.76
2022-08-11T09:14:24.560Z,21.99
2022-08-11T09:16:54.150Z,21.41
2022-08-11T09:19:22.861Z,22.34
2022-08-11T09:22:13.366Z,22.51
2022-08-11T09:25:00.416Z,23.41
2022-08-11T09:27:29.158Z,22.19
2022-08-11T09:29:57.449Z,21.19
2022-08-11T09:32:26.553Z,19.54
2022-08-11T09:34:55.667Z,19.71
2022-08-11T09:37:55.831Z,21.03
2022-08-11T09:40:33.707Z,20.67
2022-08-11T09:43:22.185Z,20.86
2022-08-11T09:45:53.169Z,20.78
2022-08-11T09:48:23.041Z,20.08
2022-08-11T09:50:52.653Z,18.69
2022-08-11T09:53:34.934Z,19.57
2022-08-11T09:56:25.761Z,18.09
2022-08-11T09:58:53.839Z,17.96
2022-08-11T10:01:30.878Z,18.38
2022-08-11T10:04:02.223Z,18.44
2022-08-11T10:06:53.964Z,18.41
2022-08-11T10:09:25.133Z,17.94
2022-08-11T10:11:58.793Z,16.20
2022-08-11T10:14:46.211Z,17.79
2022-08-11T10:17:17.068Z,17.66
2022-08-11T10:20:04.247Z,17.87
2022-08-11T10:22:52.304Z,17.21
2022-08-11T10:25:38.694Z,17.13
2022-08-11T10:28:30.343Z,17.18
2022-08-11T10:31:16.939Z,17.10
2022-08-11T10:34:02.065Z,19.00
2022-08-11T10:36:32.647Z,17.92
2022-08-11T10:39:02.418Z,17.42
2022-08-11T10:42:06.568Z,17.23
2022-08-11T10:44:40.479Z,17.02
2022-08-11T10:47:29.257Z,15.71
2022-08-11T10:50:16.188Z,17.01
2022-08-11T10:53:04.949Z,15.85
2022-08-11T10:55:51.133Z,15.33
2022-08-11T10:58:36.788Z,16.26
2022-08-11T11:01:06.818Z,15.46
2022-08-11T11:03:36.619Z,14.46
2022-08-11T11:06:27.207Z,16.28
2022-08-11T11:09:04.443Z,15.58
2022-08-11T11:11:56.159Z,16.88
2022-08-11T11:14:49.151Z,15.98
2022-08-11T11:17:51.029Z,15.61
2022-08-11T11:20:34.483Z,15.26
2022-08-11T11:23:08.956Z,14.62
2022-08-11T11:26:06.593Z,14.78
2022-08-11T11:28:55.016Z,13.40
2022-08-11T11:31:35.144Z,14.29
2022-08-11T11:34:18.333Z,13.52
2022-08-11T11:36:50.614Z,13.40
2022-08-11T11:39:21.563Z,13.54
2022-08-11T11:41:50.627Z,13.04
2022-08-11T11:44:19.277Z,11.24
2022-08-11T11:46:48.628Z,12.32
2022-08-11T11:51:54.438Z,13.28
2022-08-11T11:54:26.469Z,12.20
2022-08-11T11:56:55.749Z,13.33
2022-08-11T11:59:43.086Z,11.66
2022-08-11T12:02:13.979Z,11.14
2022-08-11T12:04:47.759Z,13.31
2022-08-11T12:07:34.435Z,13.44
2022-08-11T12:10:02.815Z,11.97
2022-08-11T12:12:50.230Z,10.73
2022-08-11T12:15:19.804Z,11.26
2022-08-11T12:18:08.384Z,11.98
2022-08-11T12:20:39.511Z,10.85
2022-08-11T12:23:25.158Z,10.72
2022-08-11T12:26:26.537Z,11.66
2022-08-11T12:28:59.726Z,9.87
2022-08-11T12:31:29.466Z,11.60
2022-08-11T12:34:02.437Z,11.69
2022-08-11T12:36:36.224Z,11.33
2022-08-11T12:39:23.162Z,11.20
2022-08-11T12:42:10.215Z,10.19
2022-08-11T12:44:56.333Z,11.28
2022-08-11T12:47:24.746Z,12.55
2022-08-11T12:50:22.916Z,11.16
2022-08-11T12:52:57.003Z,10.18
2022-08-11T12:55:40.069Z,10.68
2022-08-11T12:58:18.152Z,11.12
2022-08-11T13:01:04.617Z,12.07
2022-08-11T13:03:56.808Z,12.40
2022-08-11T13:06:26.661Z,12.22
2022-08-11T13:09:01.056Z,13.04
2022-08-11T13:11:55.912Z,13.58
2022-08-11T13:14:26.999Z,12.22
2022-08-11T13:17:14.692Z,12.18
2022-08-11T13:19:48.955Z,12.13
2022-08-11T13:22:19.538Z,11.97
2022-08-11T13:24:49.942Z,12.42
2022-08-11T13:27:20.840Z,12.35
2022-08-11T13:29:52.645Z,12.34
2022-08-11T13:32:26.236Z,11.56
2022-08-11T13:34:54.588Z,12.24
2022-08-11T13:38:17.255Z,11.85
2022-08-11T13:40:17.770Z,12.31
2022-08-11T13:42:49.961Z,12.76
2022-08-11T13:45:18.618Z,12.31
2022-08-11T13:47:46.958Z,12.58
2022-08-11T13:50:16.135Z,12.26
2022-08-11T13:52:44.335Z,11.55
2022-08-11T13:55:45.066Z,12.50
2022-08-11T13:58:20.740Z,11.73
2022-08-11T14:01:00.294Z,12.05
2022-08-11T14:04:29.169Z,12.18
2022-08-11T14:06:20.278Z,12.38
2022-08-11T14:08:49.074Z,12.38
2022-08-11T14:12:21.055Z,12.83
2022-08-11T14:14:27.494Z,13.27
2022-08-11T14:16:57.522Z,11.96
2022-08-11T14:19:27.912Z,12.70
2022-08-11T14:22:08.587Z,12.13
2022-08-11T14:24:39.234Z,12.02
2022-08-11T14:28:30.041Z,11.97
2022-08-11T14:29:59.956Z,12.51
2022-08-11T14:32:28.445Z,11.81
2022-08-11T14:34:56.793Z,11.77
2022-08-11T14:37:27.898Z,12.18
2022-08-11T14:40:03.331Z,12.31
2022-08-11T14:42:51.488Z,12.04
2022-08-11T14:45:54.235Z,11.56
2022-08-11T14:48:21.619Z,11.70
2022-08-11T14:50:49.529Z,11.50
2022-08-11T14:53:18.967Z,12.92
2022-08-11T14:56:05.389Z,12.34
2022-08-11T14:58:35.191Z,11.64
2022-08-11T15:01:24.658Z,11.08
2022-08-11T15:04:27.318Z,12.03
2022-08-11T15:06:40.691Z,12.06
2022-08-11T15:09:09.554Z,11.64
2022-08-11T15:11:55.687Z,12.62
2022-08-11T15:14:39.688Z,12.00
2022-08-11T15:17:12.606Z,11.09
2022-08-11T15:20:03.981Z,11.82
2022-08-11T15:22:49.793Z,11.43
2022-08-11T15:25:19.841Z,11.40
2022-08-11T15:28:09.270Z,11.45
2022-08-11T15:31:02.162Z,11.99
2022-08-11T15:33:50.028Z,11.85
2022-08-11T15:36:35.197Z,11.88
2022-08-11T15:39:19.504Z,12.05
2022-08-11T15:42:12.657Z,12.38
2022-08-11T15:45:02.549Z,11.78
2022-08-11T15:47:37.348Z,11.86
2022-08-11T15:50:11.638Z,11.88
2022-08-11T15:52:49.155Z,12.48
2022-08-11T15:55:17.766Z,12.59
2022-08-11T15:58:07.669Z,11.94
2022-08-11T16:01:03.928Z,11.81
2022-08-11T16:04:07.987Z,11.72
2022-08-11T16:06:43.977Z,12.07
2022-08-11T16:09:19.153Z,12.72
2022-08-11T16:11:47.984Z,12.68
2022-08-11T16:14:35.704Z,12.71
2022-08-11T16:17:05.481Z,12.15
2022-08-11T16:19:37.471Z,13.79
2022-08-11T16:22:09.044Z,12.77
2022-08-11T16:27:03.324Z,12.64
2022-08-11T16:27:29.113Z,13.31
2022-08-11T16:29:57.792Z,13.13
2022-08-11T16:32:27.159Z,12.93
2022-08-11T16:35:18.769Z,12.34
2022-08-11T16:38:20.180Z,13.13
2022-08-11T16:40:50.390Z,12.21
2022-08-11T16:43:46.782Z,13.44
2022-08-11T16:46:33.585Z,12.69
2022-08-11T16:49:05.445Z,13.62
2022-08-11T16:51:35.074Z,14.00
2022-08-11T16:54:06.408Z,12.82
2022-08-11T16:56:38.912Z,12.82
2022-08-11T16:59:17.452Z,13.50
2022-08-11T17:01:53.284Z,13.55
2022-08-11T17:04:56.441Z,13.84
2022-08-11T17:07:45.982Z,12.73
2022-08-11T17:10:54.765Z,13.38
2022-08-11T17:13:33.126Z,13.71
2022-08-11T17:16:11.575Z,12.91
2022-08-11T17:18:46.836Z,13.45
2022-08-11T17:21:22.015Z,13.36
2022-08-11T17:23:54.879Z,13.19
2022-08-11T17:26:47.542Z,12.85
2022-08-11T17:29:16.249Z,13.68
2022-08-11T17:32:02.430Z,13.37
2022-08-11T17:34:48.110Z,13.10
2022-08-11T17:37:16.590Z,14.21
2022-08-11T17:39:47.077Z,14.32
2022-08-11T17:42:36.100Z,12.95
2022-08-11T17:45:31.834Z,13.12
2022-08-11T17:48:19.793Z,12.89
2022-08-11T17:50:49.241Z,13.66
2022-08-11T17:53:41.556Z,13.57
2022-08-11T17:56:50.236Z,15.10
2022-08-11T17:59:37.330Z,15.43
2022-08-11T18:02:20.794Z,14.29
2022-08-11T18:05:02.578Z,14.35
2022-08-11T18:07:47.674Z,14.79
2022-08-11T18:10:35.631Z,16.21
2022-08-11T18:13:26.795Z,15.01
2022-08-11T18:16:12.075Z,15.36
2022-08-11T18:18:57.591Z,15.61
2022-08-11T18:21:46.508Z,48.70
2022-08-11T18:24:56.442Z,100.00
2022-08-11T18:27:44.327Z,100.00
2022-08-11T18:30:31.968Z,100.00
2022-08-11T18:36:29.857Z,100.00
2022-08-11T18:39:16.685Z,100.00
2022-08-11T18:42:05.033Z,100.00
2022-08-11T18:44:53.422Z,100.00
2022-08-11T18:47:42.054Z,100.00
2022-08-11T18:50:38.537Z,100.00
2022-08-11T18:53:26.789Z,100.00
2022-08-11T18:56:12.829Z,100.00
2022-08-11T18:59:01.856Z,100.00
2022-08-11T19:01:55.333Z,100.00
2022-08-11T19:04:43.496Z,100.00
2022-08-11T19:07:31.290Z,100.00
2022-08-11T19:10:17.673Z,100.00
2022-08-11T19:13:05.354Z,100.00
2022-08-11T19:15:51.796Z,100.00
2022-08-11T19:18:40.698Z,100.00
2022-08-11T19:21:31.017Z,100.00
2022-08-11T19:24:21.130Z,100.00
2022-08-11T19:27:08.896Z,100.00
2022-08-11T19:30:07.956Z,100.00
2022-08-11T19:32:59.162Z,100.00
2022-08-11T19:35:45.671Z,100.00
2022-08-11T19:38:33.359Z,100.00
2022-08-11T19:41:52.090Z,100.00
2022-08-11T19:44:25.821Z,100.00
2022-08-11T19:47:12.013Z,100.00
2022-08-11T19:50:00.416Z,100.00
2022-08-11T19:52:47.595Z,100.00
2022-08-11T19:55:36.223Z,100.00
2022-08-11T19:58:22.425Z,100.00
2022-08-11T20:01:08.313Z,100.00
2022-08-11T20:03:53.949Z,100.00
2022-08-11T20:06:40.714Z,100.00
2022-08-11T20:09:28.535Z,100.00
2022-08-11T20:12:36.365Z,100.00
2022-08-11T20:15:24.582Z,100.00
2022-08-11T20:18:11.158Z,100.00
2022-08-11T20:20:58.717Z,100.00
2022-08-11T20:23:46.423Z,100.00
2022-08-11T20:26:32.632Z,100.00
2022-08-11T20:29:20.271Z,100.00
2022-08-11T20:32:06.682Z,100.00
2022-08-11T20:34:57.569Z,100.00
2022-08-11T20:37:50.177Z,100.00
2022-08-11T20:40:38.782Z,100.00
2022-08-11T20:44:06.842Z,100.00
2022-08-11T20:46:34.368Z,100.00
2022-08-11T20:49:21.086Z,100.00
2022-08-11T20:52:07.508Z,100.00
2022-08-11T20:54:56.615Z,100.00
2022-08-11T20:57:58.887Z,100.00
2022-08-11T21:00:49.967Z,100.00
2022-08-11T21:03:44.894Z,100.00
2022-08-11T21:06:39.256Z,100.00
2022-08-11T21:09:58.866Z,100.00
2022-08-11T21:12:36.869Z,100.00
2022-08-11T21:15:38.815Z,100.00
2022-08-11T21:18:33.459Z,100.00
2022-08-11T21:21:25.976Z,100.00
2022-08-11T21:24:13.165Z,100.00
2022-08-11T21:27:05.393Z,100.00
2022-08-11T21:29:53.203Z,100.00
2022-08-11T21:32:40.505Z,100.00
2022-08-11T21:35:29.915Z,100.00
2022-08-11T21:38:17.406Z,100.00
2022-08-11T21:41:05.332Z,100.00
2022-08-11T21:43:52.573Z,100.00
2022-08-11T21:46:40.938Z,100.00
2022-08-11T21:49:28.362Z,100.00
2022-08-11T21:52:13.454Z,100.00
2022-08-11T21:55:00.853Z,100.00
2022-08-11T21:57:50.292Z,100.00
2022-08-11T22:00:36.401Z,100.00
2022-08-11T22:03:23.576Z,100.00
2022-08-11T22:06:10.914Z,100.00
2022-08-11T22:08:56.296Z,100.00
2022-08-11T22:11:43.359Z,100.00
2022-08-11T22:14:29.087Z,100.00
2022-08-11T22:17:14.478Z,100.00
2022-08-11T22:20:01.038Z,100.00
2022-08-11T22:22:52.219Z,100.00
2022-08-11T22:25:51.229Z,100.00
2022-08-11T22:28:41.055Z,100.00
2022-08-11T22:31:28.931Z,100.00
2022-08-11T22:34:14.708Z,100.00
2022-08-11T22:37:01.568Z,100.00
2022-08-11T22:40:01.792Z,100.00
2022-08-11T22:42:49.162Z,100.00
2022-08-11T22:45:36.409Z,100.00
2022-08-11T22:48:23.771Z,100.00
2022-08-11T22:51:09.979Z,100.00
2022-08-11T22:53:58.365Z,100.00
2022-08-11T22:56:45.402Z,100.00
2022-08-11T22:59:32.948Z,100.00
2022-08-11T23:02:20.802Z,100.00
2022-08-11T23:05:07.161Z,100.00
2022-08-11T23:07:53.737Z,100.00
2022-08-11T23:10:40.400Z,100.00
2022-08-11T23:13:27.098Z,100.00
2022-08-11T23:16:14.109Z,100.00
2022-08-11T23:19:01.056Z,100.00
2022-08-11T23:21:46.697Z,100.00
2022-08-11T23:24:32.631Z,100.00
2022-08-11T23:27:20.848Z,100.00
2022-08-11T23:30:09.112Z,100.00
2022-08-11T23:32:55.835Z,100.00
2022-08-11T23:35:53.811Z,100.00
2022-08-11T23:38:42.135Z,100.00
2022-08-11T23:41:27.472Z,100.00
2022-08-11T23:44:13.811Z,100.00
2022-08-11T23:47:01.180Z,100.00
2022-08-11T23:49:47.965Z,100.00
2022-08-11T23:52:35.406Z,100.00
2022-08-11T23:55:21.399Z,100.00
2022-08-11T23:58:07.079Z,100.00
